createdAt,value
2022-11-03T00:01:37.814Z,16.73
2022-11-03T00:04:07.539Z,9.43
2022-11-03T00:06:36.065Z,7.53
2022-11-03T00:09:06.745Z,10.52
2022-11-03T00:11:37.279Z,8.10
2022-11-03T00:14:06.497Z,10.55
2022-11-03T00:16:34.942Z,13.45
2022-11-03T00:19:03.385Z,8.25
2022-11-03T00:21:31.767Z,7.18
2022-11-03T00:24:01.336Z,16.80
2022-11-03T00:26:30.625Z,10.70
2022-11-03T00:29:02.205Z,5.78
2022-11-03T00:31:32.056Z,10.68
2022-11-03T00:34:01.112Z,12.13
2022-11-03T00:36:30.662Z,9.63
2022-11-03T00:38:59.073Z,7.50
2022-11-03T00:41:28.145Z,6.70
2022-11-03T00:43:57.247Z,8.27
2022-11-03T00:46:26.914Z,12.02
2022-11-03T00:48:54.981Z,8.00
2022-11-03T00:51:25.069Z,9.02
2022-11-03T00:53:54.748Z,7.00
2022-11-03T00:56:24.326Z,10.05
2022-11-03T00:58:53.332Z,8.88
2022-11-03T01:01:23.145Z,10.13
2022-11-03T01:04:11.769Z,5.53
2022-11-03T01:06:51.879Z,6.47
2022-11-03T01:09:21.090Z,9.70
2022-11-03T01:11:56.977Z,9.93
2022-11-03T01:14:26.790Z,11.30
2022-11-03T01:16:55.022Z,5.55
2022-11-03T01:19:25.357Z,9.60
2022-11-03T01:21:53.967Z,7.18
2022-11-03T01:24:22.707Z,6.75
2022-11-03T01:26:50.777Z,5.95
2022-11-03T01:29:19.311Z,7.35
2022-11-03T01:31:47.692Z,5.55
2022-11-03T01:34:17.611Z,6.35
2022-11-03T01:36:47.537Z,9.00
2022-11-03T01:39:17.608Z,5.07
2022-11-03T01:41:47.278Z,12.23
2022-11-03T01:44:37.723Z,6.90
2022-11-03T01:47:17.501Z,12.70
2022-11-03T01:49:50.159Z,12.32
2022-11-03T01:52:25.275Z,10.93
2022-11-03T01:54:58.426Z,11.70
2022-11-03T01:57:31.730Z,7.90
2022-11-03T02:00:02.337Z,5.78
2022-11-03T02:02:41.391Z,7.10
2022-11-03T02:05:11.865Z,7.15
2022-11-03T02:07:48.023Z,5.47
2022-11-03T02:10:16.340Z,10.55
2022-11-03T02:12:45.254Z,11.95
2022-11-03T02:15:15.788Z,11.07
2022-11-03T02:17:45.628Z,8.68
2022-11-03T02:20:17.288Z,11.25
2022-11-03T02:23:11.876Z,9.35
2022-11-03T02:25:46.782Z,14.15
2022-11-03T02:28:18.765Z,18.15
2022-11-03T02:30:58.704Z,14.45
2022-11-03T02:33:41.541Z,16.80
2022-11-03T02:36:17.003Z,11.02
2022-11-03T02:38:50.191Z,14.50
2022-11-03T02:41:20.685Z,16.75
2022-11-03T02:43:49.706Z,13.15
2022-11-03T02:46:19.148Z,17.60
2022-11-03T02:48:48.178Z,15.75
2022-11-03T02:51:16.209Z,11.95
2022-11-03T02:53:49.590Z,10.93
2022-11-03T02:56:23.054Z,18.02
2022-11-03T02:58:57.858Z,10.63
2022-11-03T03:01:34.614Z,10.10
2022-11-03T03:04:07.218Z,13.63
2022-11-03T03:06:40.405Z,13.75
2022-11-03T03:09:13.027Z,15.05
2022-11-03T03:11:44.712Z,11.45
2022-11-03T03:14:16.369Z,9.65
2022-11-03T03:16:52.115Z,14.15
2022-11-03T03:19:26.929Z,12.80
2022-11-03T03:21:58.474Z,17.13
2022-11-03T03:24:33.204Z,13.10
2022-11-03T03:27:08.317Z,16.42
2022-11-03T03:29:40.746Z,12.20
2022-11-03T03:32:11.169Z,20.27
2022-11-03T03:34:42.938Z,16.33
2022-11-03T03:37:13.028Z,13.57
2022-11-03T03:39:45.715Z,16.15
2022-11-03T03:42:17.225Z,19.77
2022-11-03T03:44:47.415Z,23.40
2022-11-03T03:47:20.448Z,13.90
2022-11-03T03:49:48.522Z,15.57
2022-11-03T03:52:17.081Z,17.23
2022-11-03T03:54:45.089Z,17.40
2022-11-03T03:57:18.409Z,14.05
2022-11-03T03:59:47.080Z,12.15
2022-11-03T04:02:15.776Z,14.70
2022-11-03T04:04:43.898Z,13.20
2022-11-03T04:07:29.726Z,14.45
2022-11-03T04:09:58.120Z,11.82
2022-11-03T04:12:44.840Z,22.33
2022-11-03T04:15:43.013Z,15.20
2022-11-03T04:18:28.886Z,22.80
2022-11-03T04:21:14.840Z,15.82
2022-11-03T04:23:43.018Z,13.32
2022-11-03T04:26:14.014Z,15.68
2022-11-03T04:28:43.849Z,13.75
2022-11-03T04:31:13.588Z,12.32
2022-11-03T04:33:42.696Z,20.75
2022-11-03T04:36:16.398Z,12.63
2022-11-03T04:38:45.526Z,17.27
2022-11-03T04:41:18.049Z,18.23
2022-11-03T04:43:48.057Z,13.43
2022-11-03T04:46:18.304Z,14.00
2022-11-03T04:48:47.586Z,13.80
2022-11-03T04:51:18.704Z,12.10
2022-11-03T04:53:50.895Z,15.43
2022-11-03T04:56:22.117Z,17.13
2022-11-03T04:58:52.622Z,12.13
2022-11-03T05:01:24.578Z,10.45
2022-11-03T05:03:55.226Z,10.32
2022-11-03T05:06:25.412Z,11.82
2022-11-03T05:08:57.557Z,19.17
2022-11-03T05:11:30.960Z,19.70
2022-11-03T05:14:02.672Z,13.52
2022-11-03T05:16:32.565Z,19.38
2022-11-03T05:19:01.141Z,18.98
2022-11-03T05:21:29.462Z,24.30
2022-11-03T05:24:01.909Z,14.85
2022-11-03T05:26:33.674Z,13.68
2022-11-03T05:29:05.531Z,24.60
2022-11-03T05:31:36.594Z,13.75
2022-11-03T05:34:23.117Z,15.57
2022-11-03T05:36:51.068Z,17.58
2022-11-03T05:39:30.446Z,15.63
2022-11-03T05:42:00.324Z,15.32
2022-11-03T05:44:36.817Z,14.30
2022-11-03T05:47:13.444Z,9.40
2022-11-03T05:49:41.485Z,19.63
2022-11-03T05:52:15.067Z,32.05
2022-11-03T05:54:43.168Z,23.63
2022-11-03T05:57:12.571Z,26.55
2022-11-03T05:59:42.120Z,15.20
2022-11-03T06:02:27.809Z,15.70
2022-11-03T06:04:56.201Z,21.48
2022-11-03T06:07:27.155Z,25.10
2022-11-03T06:09:55.199Z,22.85
2022-11-03T06:12:24.933Z,18.70
2022-11-03T06:14:54.571Z,17.17
2022-11-03T06:17:25.205Z,34.85
2022-11-03T06:19:55.253Z,14.63
2022-11-03T06:22:25.538Z,25.33
2022-11-03T06:24:57.289Z,18.48
2022-11-03T06:27:27.682Z,21.98
2022-11-03T06:30:01.548Z,23.67
2022-11-03T06:32:30.638Z,25.83
2022-11-03T06:35:00.141Z,25.90
2022-11-03T06:37:33.166Z,17.98
2022-11-03T06:40:03.612Z,24.15
2022-11-03T06:42:34.182Z,23.77
2022-11-03T06:45:14.187Z,27.63
2022-11-03T06:47:42.512Z,34.33
2022-11-03T06:50:23.210Z,35.35
2022-11-03T06:52:51.740Z,26.58
2022-11-03T06:55:25.345Z,30.35
2022-11-03T06:57:58.765Z,25.95
2022-11-03T07:00:35.462Z,30.65
2022-11-03T07:03:10.406Z,24.83
2022-11-03T07:05:40.233Z,22.30
2022-11-03T07:08:19.895Z,24.77
2022-11-03T07:10:48.914Z,19.63
2022-11-03T07:13:21.061Z,15.52
2022-11-03T07:15:51.285Z,19.67
2022-11-03T07:18:24.004Z,13.60
2022-11-03T07:20:53.334Z,17.33
2022-11-03T07:23:25.584Z,17.83
2022-11-03T07:25:55.420Z,14.07
2022-11-03T07:28:27.910Z,11.80
2022-11-03T07:30:57.735Z,14.43
2022-11-03T07:33:28.823Z,12.25
2022-11-03T07:36:14.807Z,17.05
2022-11-03T07:38:44.556Z,11.32
2022-11-03T07:41:19.460Z,12.75
2022-11-03T07:43:52.595Z,10.40
2022-11-03T07:46:24.127Z,13.30
2022-11-03T07:48:55.343Z,16.40
2022-11-03T07:51:25.790Z,11.40
2022-11-03T07:53:56.512Z,12.77
2022-11-03T07:56:27.045Z,12.40
2022-11-03T07:58:59.925Z,9.77
2022-11-03T08:01:32.104Z,14.10
2022-11-03T08:04:04.986Z,12.48
2022-11-03T08:06:33.704Z,10.13
2022-11-03T08:09:01.934Z,14.85
2022-11-03T08:11:30.170Z,7.82
2022-11-03T08:13:58.570Z,11.90
2022-11-03T08:16:26.614Z,10.98
2022-11-03T08:18:55.916Z,9.15
2022-11-03T08:21:24.520Z,8.05
2022-11-03T08:23:52.482Z,10.40
2022-11-03T08:26:20.630Z,10.65
2022-11-03T08:28:48.891Z,6.47
2022-11-03T08:31:17.433Z,8.15
2022-11-03T08:33:46.104Z,7.40
2022-11-03T08:36:15.773Z,8.38
2022-11-03T08:38:43.958Z,6.53
2022-11-03T08:41:11.931Z,5.13
2022-11-03T08:43:39.909Z,16.50
2022-11-03T08:46:15.767Z,9.82
2022-11-03T08:48:46.250Z,9.60
2022-11-03T08:51:16.869Z,7.03
2022-11-03T08:53:46.309Z,7.40
2022-11-03T08:56:16.954Z,13.50
2022-11-03T08:58:47.426Z,9.38
2022-11-03T09:01:15.931Z,9.90
2022-11-03T09:03:44.072Z,7.80
2022-11-03T09:06:12.087Z,5.00
2022-11-03T09:11:29.907Z,10.27
2022-11-03T09:13:58.159Z,9.25
2022-11-03T09:16:26.636Z,5.35
2022-11-03T09:18:54.588Z,8.20
2022-11-03T09:21:22.677Z,10.77
2022-11-03T09:23:52.116Z,7.63
2022-11-03T09:26:20.272Z,7.18
2022-11-03T09:28:49.474Z,5.75
2022-11-03T09:31:17.641Z,10.60
2022-11-03T09:33:45.830Z,8.32
2022-11-03T09:36:14.292Z,7.82
2022-11-03T09:38:42.224Z,11.55
2022-11-03T09:41:26.556Z,5.78
2022-11-03T09:43:59.232Z,5.40
2022-11-03T09:46:29.698Z,6.22
2022-11-03T09:48:58.289Z,5.57
2022-11-03T09:51:28.125Z,7.40
2022-11-03T09:53:58.691Z,10.43
2022-11-03T09:56:28.099Z,5.65
2022-11-03T09:58:56.369Z,10.00
2022-11-03T10:01:25.015Z,8.70
2022-11-03T10:03:53.540Z,8.48
2022-11-03T10:06:21.615Z,7.10
2022-11-03T10:08:50.370Z,6.35
2022-11-03T10:11:19.116Z,6.72
2022-11-03T10:13:53.189Z,7.53
2022-11-03T10:16:24.548Z,8.68
2022-11-03T10:18:53.562Z,6.13
2022-11-03T10:21:26.857Z,5.50
2022-11-03T10:23:55.167Z,8.05
2022-11-03T10:26:23.365Z,5.93
2022-11-03T10:29:04.432Z,5.40
2022-11-03T10:31:35.018Z,4.90
2022-11-03T10:34:03.942Z,5.55
2022-11-03T10:36:33.230Z,8.88
2022-11-03T10:39:21.333Z,6.60
2022-11-03T10:41:57.682Z,5.20
2022-11-03T10:44:29.931Z,5.93
2022-11-03T10:46:59.523Z,4.90
2022-11-03T10:49:29.347Z,5.40
2022-11-03T10:52:09.341Z,6.03
2022-11-03T10:54:38.128Z,5.95
2022-11-03T10:57:07.096Z,7.05
2022-11-03T10:59:38.847Z,6.07
2022-11-03T11:02:17.159Z,7.15
2022-11-03T11:04:47.738Z,4.45
2022-11-03T11:07:29.566Z,3.70
2022-11-03T11:09:57.588Z,15.65
2022-11-03T11:12:26.175Z,5.75
2022-11-03T11:14:57.915Z,11.40
2022-11-03T11:17:43.651Z,7.22
2022-11-03T11:20:37.182Z,6.78
2022-11-03T11:23:47.853Z,4.35
2022-11-03T11:26:19.129Z,5.95
2022-11-03T11:29:08.230Z,7.47
2022-11-03T11:31:38.112Z,6.57
2022-11-03T11:34:39.958Z,5.60
2022-11-03T11:37:35.120Z,5.07
2022-11-03T11:40:04.728Z,5.65
2022-11-03T11:42:35.022Z,7.68
2022-11-03T11:45:06.729Z,6.32
2022-11-03T11:47:51.764Z,4.82
2022-11-03T11:50:46.329Z,9.63
2022-11-03T11:53:21.483Z,4.45
2022-11-03T11:55:53.805Z,6.00
2022-11-03T11:58:26.589Z,7.70
2022-11-03T12:00:57.624Z,3.40
2022-11-03T12:03:37.462Z,7.50
2022-11-03T12:06:06.155Z,6.10
2022-11-03T12:08:35.446Z,6.60
2022-11-03T12:11:05.689Z,8.75
2022-11-03T12:13:52.642Z,5.45
2022-11-03T12:16:34.331Z,6.70
2022-11-03T12:19:40.313Z,7.35
2022-11-03T12:22:10.409Z,7.40
2022-11-03T12:24:48.274Z,6.30
2022-11-03T12:27:39.044Z,8.13
2022-11-03T12:30:13.800Z,7.10
2022-11-03T12:32:41.964Z,7.97
2022-11-03T12:35:38.206Z,4.53
2022-11-03T12:38:06.260Z,8.02
2022-11-03T12:40:34.443Z,9.48
2022-11-03T12:43:02.507Z,12.77
2022-11-03T12:45:30.523Z,7.10
2022-11-03T12:47:58.510Z,6.25
2022-11-03T12:50:26.431Z,5.07
2022-11-03T12:52:56.196Z,8.80
2022-11-03T12:55:24.303Z,8.73
2022-11-03T12:57:52.537Z,6.45
2022-11-03T13:00:20.940Z,5.78
2022-11-03T13:02:48.995Z,4.97
2022-11-03T13:05:17.336Z,8.50
2022-11-03T13:07:45.285Z,7.45
2022-11-03T13:10:14.803Z,7.22
2022-11-03T13:12:44.546Z,11.05
2022-11-03T13:15:15.939Z,8.18
2022-11-03T13:18:13.040Z,7.32
2022-11-03T13:20:32.420Z,5.78
2022-11-03T13:23:00.417Z,9.38
2022-11-03T13:25:30.034Z,8.02
2022-11-03T13:27:58.456Z,9.82
2022-11-03T13:30:28.126Z,8.68
2022-11-03T13:32:56.041Z,8.02
2022-11-03T13:35:24.274Z,10.90
2022-11-03T13:37:52.455Z,8.88
2022-11-03T13:40:55.586Z,8.57
2022-11-03T13:43:10.604Z,6.97
2022-11-03T13:45:39.236Z,8.80
2022-11-03T13:49:05.341Z,5.97
2022-11-03T13:50:56.932Z,6.15
2022-11-03T13:56:20.790Z,12.82
2022-11-03T14:05:46.759Z,5.53
2022-11-03T14:08:15.314Z,11.40
2022-11-03T14:10:43.744Z,6.68
2022-11-03T14:13:12.443Z,7.70
2022-11-03T14:15:40.957Z,12.00
2022-11-03T14:18:10.773Z,9.88
2022-11-03T14:20:39.560Z,10.77
2022-11-03T14:23:08.687Z,13.60
2022-11-03T14:25:37.343Z,8.55
2022-11-03T14:28:05.769Z,9.38
2022-11-03T14:30:34.268Z,12.73
2022-11-03T14:33:02.329Z,11.48
2022-11-03T14:35:31.784Z,12.43
2022-11-03T14:37:59.892Z,6.97
2022-11-03T14:40:46.047Z,8.80
2022-11-03T14:43:14.635Z,10.73
2022-11-03T14:45:42.970Z,9.60
2022-11-03T14:48:11.216Z,9.88
2022-11-03T14:50:40.804Z,12.20
2022-11-03T14:53:08.917Z,6.82
2022-11-03T14:55:37.476Z,11.18
2022-11-03T14:58:06.213Z,14.15
2022-11-03T15:00:34.417Z,12.98
2022-11-03T15:03:02.592Z,14.25
2022-11-03T15:05:45.640Z,11.70
2022-11-03T15:08:16.953Z,11.68
2022-11-03T15:10:46.123Z,13.18
2022-11-03T15:13:14.320Z,18.27
2022-11-03T15:15:42.753Z,12.45
2022-11-03T15:18:11.204Z,13.00
2022-11-03T15:20:39.747Z,9.85
2022-11-03T15:25:58.698Z,9.30
2022-11-03T15:28:26.813Z,7.90
2022-11-03T15:30:55.080Z,9.18
2022-11-03T15:33:23.147Z,10.70
2022-11-03T15:35:51.522Z,8.38
2022-11-03T15:38:19.849Z,12.20
2022-11-03T15:40:48.150Z,11.45
2022-11-03T15:43:18.433Z,18.77
2022-11-03T15:45:46.531Z,15.52
2022-11-03T15:48:40.252Z,12.32
2022-11-03T15:51:08.567Z,10.32
2022-11-03T15:53:36.680Z,18.00
2022-11-03T15:56:05.214Z,11.80
2022-11-03T15:58:34.901Z,11.80
2022-11-03T16:01:03.818Z,10.80
2022-11-03T16:03:32.948Z,13.80
2022-11-03T16:06:01.433Z,10.00
2022-11-03T16:08:29.437Z,12.18
2022-11-03T16:10:58.371Z,6.78
2022-11-03T16:13:26.762Z,11.68
2022-11-03T16:15:56.498Z,10.07
2022-11-03T16:18:24.959Z,12.02
2022-11-03T16:20:53.376Z,10.85
2022-11-03T16:23:21.630Z,9.02
2022-11-03T16:25:50.569Z,8.50
2022-11-03T16:28:19.783Z,11.32
2022-11-03T16:30:53.830Z,11.70
2022-11-03T16:33:24.660Z,12.35
2022-11-03T16:35:52.796Z,12.43
2022-11-03T16:38:20.983Z,11.23
2022-11-03T16:40:49.032Z,12.30
2022-11-03T16:43:17.187Z,11.88
2022-11-03T16:45:45.331Z,12.95
2022-11-03T16:48:13.555Z,9.75
2022-11-03T16:50:44.761Z,10.25
2022-11-03T16:53:13.357Z,11.18
2022-11-03T16:55:41.567Z,14.73
2022-11-03T16:58:10.042Z,13.98
2022-11-03T17:00:38.077Z,13.95
2022-11-03T17:03:06.564Z,9.23
2022-11-03T17:05:35.851Z,15.82
2022-11-03T17:08:05.781Z,17.25
2022-11-03T17:10:33.805Z,13.35
2022-11-03T17:13:04.970Z,13.32
2022-11-03T17:15:35.667Z,10.38
2022-11-03T17:18:03.698Z,13.23
2022-11-03T17:20:31.783Z,15.02
2022-11-03T17:22:59.904Z,13.00
2022-11-03T17:25:30.107Z,14.18
2022-11-03T17:28:00.732Z,11.77
2022-11-03T17:30:31.660Z,13.52
2022-11-03T17:33:02.791Z,13.02
2022-11-03T17:35:39.271Z,16.60
2022-11-03T17:38:13.923Z,16.35
2022-11-03T17:40:45.355Z,9.15
2022-11-03T17:43:23.932Z,10.73
2022-11-03T17:45:52.453Z,13.07
2022-11-03T17:48:25.046Z,12.18
2022-11-03T17:50:56.427Z,11.23
2022-11-03T17:53:26.970Z,18.80
2022-11-03T17:56:27.746Z,16.17
2022-11-03T17:58:47.471Z,10.73
2022-11-03T18:01:21.419Z,13.25
2022-11-03T18:03:49.793Z,17.05
2022-11-03T18:06:20.020Z,18.05
2022-11-03T18:08:49.266Z,15.13
2022-11-03T18:11:44.591Z,21.00
2022-11-03T18:14:12.937Z,15.18
2022-11-03T18:16:41.898Z,11.98
2022-11-03T18:19:12.933Z,17.75
2022-11-03T18:21:41.255Z,18.23
2022-11-03T18:24:13.009Z,10.50
2022-11-03T18:26:43.438Z,14.35
2022-11-03T18:29:12.021Z,17.30
2022-11-03T18:31:42.882Z,19.17
2022-11-03T18:34:16.171Z,18.02
2022-11-03T18:36:44.805Z,11.18
2022-11-03T18:39:18.240Z,20.90
2022-11-03T18:41:48.039Z,17.10
2022-11-03T18:44:19.631Z,19.02
2022-11-03T18:46:48.454Z,17.45
2022-11-03T18:49:20.618Z,18.75
2022-11-03T18:51:50.444Z,13.77
2022-11-03T18:54:21.753Z,11.68
2022-11-03T18:56:54.064Z,15.73
2022-11-03T18:59:27.763Z,12.43
2022-11-03T19:01:56.525Z,11.60
2022-11-03T19:04:25.218Z,12.70
2022-11-03T19:06:53.829Z,11.18
2022-11-03T19:09:26.278Z,12.68
2022-11-03T19:11:58.396Z,13.23
2022-11-03T19:14:29.802Z,17.80
2022-11-03T19:17:28.771Z,11.65
2022-11-03T19:19:47.492Z,17.27
2022-11-03T19:22:17.558Z,13.88
2022-11-03T19:24:46.335Z,12.90
2022-11-03T19:27:19.731Z,16.60
2022-11-03T19:29:49.815Z,11.32
2022-11-03T19:32:23.646Z,14.80
2022-11-03T19:34:58.165Z,11.00
2022-11-03T19:37:31.017Z,11.73
2022-11-03T19:40:02.469Z,16.35
2022-11-03T19:42:33.179Z,19.73
2022-11-03T19:45:02.746Z,13.00
2022-11-03T19:47:34.884Z,12.50
2022-11-03T19:50:07.712Z,13.90
2022-11-03T19:52:36.762Z,14.38
2022-11-03T19:55:08.533Z,13.90
2022-11-03T19:57:38.606Z,13.95
2022-11-03T20:00:11.156Z,14.40
2022-11-03T20:02:39.680Z,11.43
2022-11-03T20:05:08.411Z,14.35
2022-11-03T20:07:37.335Z,13.57
2022-11-03T20:10:29.320Z,10.80
2022-11-03T20:13:02.783Z,15.55
2022-11-03T20:15:31.249Z,10.40
2022-11-03T20:17:59.907Z,18.00
2022-11-03T20:20:31.918Z,12.77
2022-11-03T20:23:01.342Z,13.43
2022-11-03T20:25:33.209Z,13.48
2022-11-03T20:28:15.244Z,12.15
2022-11-03T20:30:44.757Z,12.43
2022-11-03T20:33:16.116Z,14.60
2022-11-03T20:35:46.291Z,16.42
2022-11-03T20:38:17.177Z,19.60
2022-11-03T20:40:45.595Z,11.55
2022-11-03T20:43:23.632Z,12.60
2022-11-03T20:45:51.957Z,13.45
2022-11-03T20:48:20.170Z,18.63
2022-11-03T20:50:48.567Z,18.50
2022-11-03T20:53:19.263Z,15.15
2022-11-03T20:55:47.661Z,22.38
2022-11-03T20:58:19.244Z,14.02
2022-11-03T21:00:49.385Z,15.18
2022-11-03T21:03:44.936Z,16.17
2022-11-03T21:06:08.627Z,19.92
2022-11-03T21:08:37.108Z,17.70
2022-11-03T21:11:28.386Z,19.10
2022-11-03T21:14:01.318Z,17.80
2022-11-03T21:16:48.687Z,17.88
2022-11-03T21:19:36.574Z,16.73
2022-11-03T21:22:30.892Z,17.10
2022-11-03T21:25:03.015Z,24.85
2022-11-03T21:27:31.252Z,22.13
2022-11-03T21:30:01.559Z,16.75
2022-11-03T21:32:29.788Z,20.90
2022-11-03T21:35:23.777Z,17.70
2022-11-03T21:37:51.943Z,20.33
2022-11-03T21:40:20.271Z,22.13
2022-11-03T21:43:06.271Z,21.15
2022-11-03T21:45:36.767Z,21.10
2022-11-03T21:48:23.448Z,21.75
2022-11-03T21:50:52.267Z,21.85
2022-11-03T21:53:20.415Z,25.77
2022-11-03T21:55:49.437Z,21.60
2022-11-03T21:58:17.662Z,22.92
2022-11-03T22:00:47.763Z,22.63
2022-11-03T22:03:16.341Z,21.98
2022-11-03T22:05:44.445Z,23.23
2022-11-03T22:08:12.612Z,21.40
2022-11-03T22:10:41.437Z,24.55
2022-11-03T22:13:11.370Z,26.40
2022-11-03T22:15:57.786Z,27.10
2022-11-03T22:18:27.649Z,26.95
2022-11-03T22:21:15.726Z,29.98
2022-11-03T22:24:01.737Z,32.10
2022-11-03T22:26:47.751Z,26.00
2022-11-03T22:29:33.607Z,22.08
2022-11-03T22:32:01.696Z,29.52
2022-11-03T22:35:17.535Z,22.58
2022-11-03T22:37:46.012Z,28.73
2022-11-03T22:40:31.560Z,33.00
2022-11-03T22:43:18.929Z,33.25
2022-11-03T22:45:54.629Z,26.63
2022-11-03T22:48:24.559Z,33.58
2022-11-03T22:51:06.171Z,24.88
2022-11-03T22:56:46.389Z,30.50
2022-11-03T22:59:14.605Z,33.88
2022-11-03T23:01:43.258Z,36.92
2022-11-03T23:04:11.541Z,37.13
2022-11-03T23:06:41.994Z,33.58
2022-11-03T23:09:11.948Z,35.88
2022-11-03T23:11:40.417Z,32.67
2022-11-03T23:14:10.595Z,38.08
2022-11-03T23:16:40.201Z,35.25
2022-11-03T23:19:28.521Z,33.03
2022-11-03T23:21:59.135Z,29.98
2022-11-03T23:24:45.623Z,35.22
2022-11-03T23:27:15.113Z,34.25
2022-11-03T23:29:43.173Z,32.65
2022-11-03T23:32:11.430Z,31.10
2022-11-03T23:35:04.791Z,32.75
2022-11-03T23:37:35.108Z,30.10
2022-11-03T23:40:03.638Z,32.47
2022-11-03T23:43:00.836Z,31.42
2022-11-03T23:45:46.616Z,36.00
2022-11-03T23:48:32.536Z,35.65
2022-11-03T23:51:00.886Z,38.88
2022-11-03T23:53:30.851Z,32.97
2022-11-03T23:56:19.036Z,38.40
2022-11-03T23:58:49.600Z,34.60
